Time;durP1;ratioP1;P1;durP2;ratioP2;P2;SDS_P1;SDS_P2;PMS_P1;PMS_P2;Temp;Humidity;BMP_temperature;BMP_pressure;BME280_temperature;BME280_humidity;BME280_pressure;Samples;Min_cycle;Max_cycle;Signal;HPM_P1;HPM_P2
2022/07/31 00:00:25;;;;;;;8.73;4.30;;;;;;;;;;5037240;28;94350;-49
2022/07/31 00:02:54;;;;;;;5.13;3.17;;;;;;;;;;5037973;28;93790;-49
2022/07/31 00:05:22;;;;;;;3.30;2.70;;;;;;;;;;5037314;28;92003;-49
2022/07/31 00:07:50;;;;;;;9.30;3.13;;;;;;;;;;5037215;28;92528;-49
2022/07/31 00:10:20;;;;;;;3.47;2.30;;;;;;;;;;5036661;28;94191;-49
2022/07/31 00:12:48;;;;;;;5.47;3.13;;;;;;;;;;5037302;28;92840;-48
2022/07/31 00:15:16;;;;;;;3.63;2.10;;;;;;;;;;5037046;28;92144;-49
2022/07/31 00:17:45;;;;;;;2.73;1.63;;;;;;;;;;5022223;28;92305;-48
2022/07/31 00:20:14;;;;;;;2.93;2.00;;;;;;;;;;5036421;28;94140;-51
2022/07/31 00:22:42;;;;;;;4.80;2.73;;;;;;;;;;5038543;28;94875;-48
2022/07/31 00:25:10;;;;;;;2.10;1.53;;;;;;;;;;5039514;28;92280;-48
2022/07/31 00:27:40;;;;;;;5.13;1.63;;;;;;;;;;5038356;28;92076;-49
2022/07/31 00:30:09;;;;;;;4.07;2.10;;;;;;;;;;5038054;28;94295;-48
2022/07/31 00:32:37;;;;;;;2.67;1.73;;;;;;;;;;5027334;28;92826;-49
2022/07/31 00:35:05;;;;;;;3.80;1.60;;;;;;;;;;5039248;28;91922;-49
2022/07/31 00:37:36;;;;;;;1.53;1.43;;;;;;;;;;5039229;28;91362;-47
2022/07/31 00:40:07;;;;;;;6.43;1.90;;;;;;;;;;5038337;28;94331;-48
2022/07/31 00:42:36;;;;;;;2.57;1.67;;;;;;;;;;5038798;28;93933;-48
2022/07/31 00:45:07;;;;;;;3.47;1.70;;;;;;;;;;5039113;28;93322;-48
2022/07/31 00:47:36;;;;;;;2.40;1.97;;;;;;;;;;5039045;28;92041;-48
2022/07/31 00:50:07;;;;;;;2.73;1.40;;;;;;;;;;5038388;28;93103;-48
2022/07/31 00:52:35;;;;;;;2.57;1.50;;;;;;;;;;5038418;28;93841;-48
2022/07/31 00:55:03;;;;;;;2.10;1.40;;;;;;;;;;5038417;28;92054;-48
2022/07/31 00:57:31;;;;;;;2.03;1.77;;;;;;;;;;5038363;28;92679;-48
2022/07/31 01:00:00;;;;;;;2.17;1.60;;;;;;;;;;5029071;28;93262;-48
2022/07/31 01:02:29;;;;;;;1.77;1.27;;;;;;;;;;5031096;28;94156;-47
2022/07/31 01:04:58;;;;;;;3.07;1.63;;;;;;;;;;5038425;28;92038;-48
2022/07/31 01:07:26;;;;;;;3.53;2.13;;;;;;;;;;5038520;28;91986;-49
2022/07/31 01:09:54;;;;;;;3.23;1.50;;;;;;;;;;5036857;28;95148;-48
2022/07/31 01:12:23;;;;;;;3.10;1.97;;;;;;;;;;5028265;28;94844;-48
2022/07/31 01:14:52;;;;;;;2.37;1.73;;;;;;;;;;5017529;28;92121;-47
2022/07/31 01:17:21;;;;;;;4.00;1.73;;;;;;;;;;5038469;28;92001;-48
2022/07/31 01:19:51;;;;;;;5.13;1.53;;;;;;;;;;5036862;28;94439;-48
2022/07/31 01:22:26;;;;;;;4.20;1.50;;;;;;;;;;5037990;28;92764;-47
2022/07/31 01:25:04;;;;;;;2.60;1.10;;;;;;;;;;5038622;28;92061;-48
2022/07/31 01:27:33;;;;;;;2.57;0.80;;;;;;;;;;5033967;28;91423;-50
2022/07/31 01:30:18;;;;;;;2.17;1.10;;;;;;;;;;5021604;28;94197;-48
2022/07/31 01:32:47;;;;;;;2.23;0.90;;;;;;;;;;5041103;28;92902;-48
2022/07/31 01:35:16;;;;;;;2.87;1.37;;;;;;;;;;5029240;28;92986;-48
2022/07/31 01:37:44;;;;;;;2.93;1.40;;;;;;;;;;5021371;28;93222;-48
2022/07/31 01:40:14;;;;;;;2.90;1.80;;;;;;;;;;5020933;28;94193;-48
2022/07/31 01:42:43;;;;;;;2.13;1.63;;;;;;;;;;5021073;28;93008;-48
2022/07/31 01:45:11;;;;;;;1.33;0.80;;;;;;;;;;5022110;28;92037;-47
2022/07/31 01:47:41;;;;;;;1.60;0.93;;;;;;;;;;5035082;28;92041;-48
2022/07/31 01:50:10;;;;;;;1.73;0.90;;;;;;;;;;5041130;28;92714;-48
2022/07/31 01:52:59;;;;;;;1.30;1.00;;;;;;;;;;5021007;28;94914;-49
2022/07/31 01:55:28;;;;;;;2.13;1.23;;;;;;;;;;5020871;28;92039;-49
2022/07/31 01:57:56;;;;;;;1.73;0.90;;;;;;;;;;5010916;28;92008;-47
2022/07/31 02:00:24;;;;;;;1.23;0.73;;;;;;;;;;5000874;28;95211;-48
2022/07/31 02:03:07;;;;;;;1.87;1.03;;;;;;;;;;5000749;28;94863;-49
2022/07/31 02:05:37;;;;;;;3.90;2.00;;;;;;;;;;5001839;28;91993;-49
2022/07/31 02:08:06;;;;;;;1.23;0.73;;;;;;;;;;5001033;28;92045;-48
2022/07/31 02:10:34;;;;;;;0.83;0.83;;;;;;;;;;5014262;28;93161;-48
2022/07/31 02:13:02;;;;;;;4.00;1.00;;;;;;;;;;5020986;28;92107;-49
2022/07/31 02:15:31;;;;;;;2.47;1.20;;;;;;;;;;5028163;28;91981;-48
2022/07/31 02:17:59;;;;;;;2.53;1.27;;;;;;;;;;5041363;28;91306;-49
2022/07/31 02:20:29;;;;;;;2.43;1.50;;;;;;;;;;5040733;28;94218;-48
2022/07/31 02:23:00;;;;;;;2.73;1.57;;;;;;;;;;5040684;28;94173;-49
2022/07/31 02:25:28;;;;;;;4.13;1.43;;;;;;;;;;5040345;28;92979;-49
2022/07/31 02:27:57;;;;;;;4.97;0.90;;;;;;;;;;5040220;28;92239;-48
2022/07/31 02:30:26;;;;;;;2.40;1.33;;;;;;;;;;5040589;28;93214;-48
2022/07/31 02:33:06;;;;;;;1.40;1.13;;;;;;;;;;5039891;28;92985;-48
2022/07/31 02:35:36;;;;;;;2.63;1.90;;;;;;;;;;5040833;28;91909;-49
2022/07/31 02:38:11;;;;;;;4.33;2.70;;;;;;;;;;5041022;28;92731;-48
2022/07/31 02:40:50;;;;;;;4.43;2.67;;;;;;;;;;5040721;28;94299;-50
2022/07/31 02:43:19;;;;;;;6.10;2.93;;;;;;;;;;5040235;27;94152;-48
2022/07/31 02:45:47;;;;;;;8.37;3.43;;;;;;;;;;5041432;28;92030;-48
2022/07/31 02:48:15;;;;;;;6.33;3.17;;;;;;;;;;5041111;28;92017;-48
2022/07/31 02:50:45;;;;;;;4.53;2.60;;;;;;;;;;5043989;27;95080;-48
2022/07/31 02:53:13;;;;;;;3.53;2.00;;;;;;;;;;5060401;27;93763;-48
2022/07/31 02:55:42;;;;;;;4.23;2.57;;;;;;;;;;5060927;27;92107;-48
2022/07/31 02:58:10;;;;;;;5.40;3.10;;;;;;;;;;5061626;27;92036;-49
2022/07/31 03:00:38;;;;;;;4.73;2.70;;;;;;;;;;5061282;27;94352;-48
2022/07/31 03:03:07;;;;;;;6.43;3.17;;;;;;;;;;5060345;27;93857;-48
2022/07/31 03:05:35;;;;;;;4.23;2.87;;;;;;;;;;5060980;27;92043;-48
2022/07/31 03:08:05;;;;;;;4.37;2.80;;;;;;;;;;5061281;27;91325;-48
2022/07/31 03:10:33;;;;;;;5.00;3.40;;;;;;;;;;5060301;27;94146;-48
2022/07/31 03:13:01;;;;;;;6.67;2.97;;;;;;;;;;5060256;27;93981;-48
2022/07/31 03:15:30;;;;;;;4.77;3.13;;;;;;;;;;5060342;27;92695;-48
2022/07/31 03:17:58;;;;;;;5.33;3.10;;;;;;;;;;5059992;27;92027;-48
2022/07/31 03:20:26;;;;;;;5.07;2.70;;;;;;;;;;5053166;27;94147;-48
2022/07/31 03:22:55;;;;;;;5.20;2.80;;;;;;;;;;5039921;28;93906;-48
2022/07/31 03:25:24;;;;;;;4.93;3.27;;;;;;;;;;5040035;28;92073;-48
2022/07/31 03:27:53;;;;;;;5.20;3.20;;;;;;;;;;5040492;28;92523;-48
2022/07/31 03:30:24;;;;;;;4.10;2.30;;;;;;;;;;5040206;28;94106;-49
2022/07/31 03:32:53;;;;;;;5.77;3.40;;;;;;;;;;5040172;28;93705;-49
2022/07/31 03:35:21;;;;;;;6.07;2.70;;;;;;;;;;5040689;27;91884;-49
2022/07/31 03:37:49;;;;;;;5.47;2.80;;;;;;;;;;5039948;28;92100;-49
2022/07/31 03:40:17;;;;;;;4.90;2.93;;;;;;;;;;5034221;27;95074;-49
2022/07/31 03:42:47;;;;;;;4.70;2.20;;;;;;;;;;5036426;28;95103;-49
2022/07/31 03:45:15;;;;;;;2.87;2.30;;;;;;;;;;5039531;28;92673;-49
2022/07/31 03:47:44;;;;;;;4.57;2.53;;;;;;;;;;5039952;27;93019;-49
2022/07/31 03:50:12;;;;;;;3.63;2.33;;;;;;;;;;5039066;28;94373;-49
2022/07/31 03:52:40;;;;;;;5.13;2.57;;;;;;;;;;5039230;28;93996;-49
2022/07/31 03:55:09;;;;;;;4.40;2.20;;;;;;;;;;5039797;27;91870;-47
2022/07/31 03:57:37;;;;;;;4.27;2.03;;;;;;;;;;5040100;27;91270;-49
2022/07/31 04:00:09;;;;;;;2.17;1.80;;;;;;;;;;5029718;28;94082;-49
2022/07/31 04:02:44;;;;;;;3.10;1.90;;;;;;;;;;5039321;28;91948;-49
2022/07/31 04:05:12;;;;;;;4.33;2.63;;;;;;;;;;5038584;28;93009;-49
2022/07/31 04:07:40;;;;;;;4.67;1.77;;;;;;;;;;5039936;28;91968;-49
2022/07/31 04:10:09;;;;;;;2.80;1.80;;;;;;;;;;5039307;28;93252;-49
2022/07/31 04:12:38;;;;;;;4.27;1.97;;;;;;;;;;5039576;28;92719;-49
2022/07/31 04:15:07;;;;;;;2.13;1.47;;;;;;;;;;5039762;28;91920;-49
2022/07/31 04:17:37;;;;;;;5.00;2.30;;;;;;;;;;5045373;27;91959;-48
2022/07/31 04:20:06;;;;;;;2.00;1.53;;;;;;;;;;5048715;27;94116;-49
2022/07/31 04:22:35;;;;;;;2.67;1.20;;;;;;;;;;5039759;28;93810;-49
2022/07/31 04:25:04;;;;;;;3.43;1.60;;;;;;;;;;5039602;28;91990;-49
2022/07/31 04:27:32;;;;;;;2.23;1.53;;;;;;;;;;5039788;28;92075;-50
2022/07/31 04:30:01;;;;;;;2.03;1.43;;;;;;;;;;5038672;28;96120;-48
2022/07/31 04:32:30;;;;;;;1.83;1.57;;;;;;;;;;5038995;28;94925;-48
2022/07/31 04:34:59;;;;;;;2.30;1.43;;;;;;;;;;5039679;27;92095;-49
2022/07/31 04:37:28;;;;;;;1.40;1.30;;;;;;;;;;5059932;27;92018;-49
2022/07/31 04:39:56;;;;;;;1.87;1.27;;;;;;;;;;5059432;27;94252;-49
2022/07/31 04:42:24;;;;;;;1.57;1.23;;;;;;;;;;5059843;27;93924;-49
2022/07/31 04:44:53;;;;;;;3.97;1.50;;;;;;;;;;5059732;27;92027;-49
2022/07/31 04:47:21;;;;;;;2.00;1.17;;;;;;;;;;5060320;27;91329;-49
2022/07/31 04:49:49;;;;;;;2.43;1.00;;;;;;;;;;5058561;27;94119;-49
2022/07/31 04:52:19;;;;;;;2.77;1.40;;;;;;;;;;5059379;27;93945;-49
2022/07/31 04:54:47;;;;;;;2.20;1.20;;;;;;;;;;5059090;27;93027;-48
2022/07/31 04:57:15;;;;;;;4.33;1.00;;;;;;;;;;5059519;27;92229;-49
2022/07/31 04:59:48;;;;;;;1.83;1.00;;;;;;;;;;5058974;27;93449;-49
2022/07/31 05:02:27;;;;;;;1.90;1.20;;;;;;;;;;5057321;27;93865;-49
2022/07/31 05:04:55;;;;;;;1.50;1.00;;;;;;;;;;5039332;27;92003;-48
2022/07/31 05:07:26;;;;;;;1.50;0.87;;;;;;;;;;5041192;28;92140;-48
2022/07/31 05:09:56;;;;;;;0.97;0.87;;;;;;;;;;5042305;28;94138;-48
2022/07/31 05:12:24;;;;;;;1.10;0.97;;;;;;;;;;5042454;28;93850;-48
2022/07/31 05:14:53;;;;;;;1.17;0.90;;;;;;;;;;5042233;28;92508;-49
2022/07/31 05:17:21;;;;;;;1.70;1.23;;;;;;;;;;5042246;28;91975;-48
2022/07/31 05:19:49;;;;;;;1.90;1.10;;;;;;;;;;5041718;28;95303;-49
2022/07/31 05:22:18;;;;;;;1.20;1.10;;;;;;;;;;5038537;28;94978;-48
2022/07/31 05:24:47;;;;;;;1.50;1.13;;;;;;;;;;5025036;28;91863;-49
2022/07/31 05:27:16;;;;;;;1.13;0.90;;;;;;;;;;5041129;28;92155;-50
2022/07/31 05:29:44;;;;;;;0.83;0.67;;;;;;;;;;5029018;28;94166;-49
2022/07/31 05:32:12;;;;;;;2.80;1.10;;;;;;;;;;5041798;28;93101;-48
2022/07/31 05:34:41;;;;;;;1.63;1.10;;;;;;;;;;5042349;28;92087;-50
2022/07/31 05:37:10;;;;;;;0.80;0.67;;;;;;;;;;5042710;28;91247;-50
2022/07/31 05:39:38;;;;;;;1.20;1.10;;;;;;;;;;5041742;28;94451;-50
2022/07/31 05:42:09;;;;;;;2.50;1.00;;;;;;;;;;5041927;28;93848;-50
2022/07/31 05:44:37;;;;;;;1.80;1.00;;;;;;;;;;5041878;27;93025;-50
2022/07/31 05:47:07;;;;;;;1.23;1.00;;;;;;;;;;5041561;28;92472;-48
2022/07/31 05:49:35;;;;;;;1.77;1.10;;;;;;;;;;5039808;28;94253;-49
2022/07/31 05:52:04;;;;;;;1.20;1.10;;;;;;;;;;5041545;27;92664;-49
2022/07/31 05:54:33;;;;;;;2.20;0.90;;;;;;;;;;5042020;28;92075;-50
2022/07/31 05:57:01;;;;;;;2.23;0.80;;;;;;;;;;5041495;28;92101;-50
2022/07/31 05:59:33;;;;;;;3.80;1.00;;;;;;;;;;5041327;28;94238;-49
2022/07/31 06:02:01;;;;;;;1.47;0.90;;;;;;;;;;5041711;28;94286;-49
2022/07/31 06:04:30;;;;;;;1.60;1.03;;;;;;;;;;5041442;28;91804;-50
2022/07/31 06:06:58;;;;;;;2.47;1.10;;;;;;;;;;5041574;27;92187;-49
2022/07/31 06:09:27;;;;;;;1.10;1.00;;;;;;;;;;5040597;28;95179;-49
2022/07/31 06:11:55;;;;;;;2.70;1.33;;;;;;;;;;5041197;28;93860;-50
2022/07/31 06:14:24;;;;;;;1.80;1.17;;;;;;;;;;5041446;28;92160;-49
2022/07/31 06:16:53;;;;;;;1.00;0.90;;;;;;;;;;5033106;27;91891;-50
2022/07/31 06:19:22;;;;;;;1.80;1.17;;;;;;;;;;5025104;28;93049;-49
2022/07/31 06:21:51;;;;;;;1.63;1.10;;;;;;;;;;5041250;28;92751;-48
2022/07/31 06:24:21;;;;;;;2.10;1.30;;;;;;;;;;5041778;28;91926;-48
2022/07/31 06:26:49;;;;;;;4.23;1.60;;;;;;;;;;5041631;28;91168;-48
2022/07/31 06:29:17;;;;;;;2.10;1.57;;;;;;;;;;5040904;28;93104;-48
2022/07/31 06:32:08;;;;;;;2.93;1.33;;;;;;;;;;5040974;28;95212;-48
2022/07/31 06:34:36;;;;;;;2.93;1.33;;;;;;;;;;5040856;28;93158;-49
2022/07/31 06:37:05;;;;;;;1.77;1.20;;;;;;;;;;5041272;28;92113;-48
2022/07/31 06:39:33;;;;;;;2.50;1.43;;;;;;;;;;5040547;28;94233;-49
2022/07/31 06:42:21;;;;;;;2.07;1.20;;;;;;;;;;5040089;28;92046;-49
2022/07/31 06:44:49;;;;;;;1.70;1.10;;;;;;;;;;5040291;28;92108;-49
2022/07/31 06:47:19;;;;;;;3.73;1.83;;;;;;;;;;5036290;28;92050;-48
2022/07/31 06:49:48;;;;;;;3.00;1.23;;;;;;;;;;5040257;28;94281;-48
2022/07/31 06:52:16;;;;;;;2.77;1.40;;;;;;;;;;5041236;27;93915;-48
2022/07/31 06:54:44;;;;;;;1.93;1.37;;;;;;;;;;5041096;28;91930;-48
2022/07/31 06:57:12;;;;;;;1.40;1.07;;;;;;;;;;5040747;28;92091;-48
2022/07/31 06:59:41;;;;;;;2.20;1.43;;;;;;;;;;5031217;28;95118;-48
2022/07/31 07:02:09;;;;;;;1.30;1.20;;;;;;;;;;5038074;28;93726;-49
2022/07/31 07:04:39;;;;;;;1.13;1.00;;;;;;;;;;5040686;28;92213;-48
2022/07/31 07:07:27;;;;;;;1.93;1.10;;;;;;;;;;5038693;28;92047;-48
2022/07/31 07:09:59;;;;;;;2.77;1.60;;;;;;;;;;5039775;27;94198;-49
2022/07/31 07:12:27;;;;;;;1.30;1.17;;;;;;;;;;5037924;27;92968;-49
2022/07/31 07:14:56;;;;;;;3.37;1.70;;;;;;;;;;5034402;27;92223;-49
2022/07/31 07:17:25;;;;;;;2.50;1.20;;;;;;;;;;5019684;28;91303;-48
2022/07/31 07:19:58;;;;;;;1.83;1.20;;;;;;;;;;5010835;28;94056;-48
2022/07/31 07:22:26;;;;;;;2.67;1.53;;;;;;;;;;5017370;28;93985;-49
2022/07/31 07:24:59;;;;;;;1.90;1.43;;;;;;;;;;5019255;28;93018;-49
2022/07/31 07:27:28;;;;;;;2.20;1.53;;;;;;;;;;5019389;28;92048;-48
2022/07/31 07:29:56;;;;;;;4.07;2.03;;;;;;;;;;5013551;28;93317;-49
2022/07/31 07:32:24;;;;;;;3.43;1.20;;;;;;;;;;5013984;28;92823;-50
2022/07/31 07:34:53;;;;;;;3.43;1.73;;;;;;;;;;5011750;28;92063;-49
2022/07/31 07:37:29;;;;;;;1.53;1.30;;;;;;;;;;5010865;28;92898;-49
2022/07/31 07:39:57;;;;;;;2.27;1.50;;;;;;;;;;5013735;28;94267;-49
2022/07/31 07:42:31;;;;;;;2.60;1.70;;;;;;;;;;5016645;28;92537;-49
2022/07/31 07:44:59;;;;;;;2.83;1.20;;;;;;;;;;5019172;28;92050;-48
2022/07/31 07:47:33;;;;;;;2.00;1.40;;;;;;;;;;5013951;28;92564;-48
2022/07/31 07:50:21;;;;;;;1.73;1.60;;;;;;;;;;5011521;28;96983;-48
2022/07/31 07:52:58;;;;;;;1.90;1.63;;;;;;;;;;5017256;28;94926;-49
2022/07/31 07:55:26;;;;;;;1.77;1.43;;;;;;;;;;5019308;28;92097;-49
2022/07/31 07:58:04;;;;;;;2.13;1.43;;;;;;;;;;5018903;28;91957;-49
2022/07/31 08:00:39;;;;;;;3.47;1.00;;;;;;;;;;5017448;28;94123;-50
2022/07/31 08:03:07;;;;;;;3.90;1.80;;;;;;;;;;5011577;28;92952;-50
2022/07/31 08:05:56;;;;;;;1.43;1.30;;;;;;;;;;5005973;28;94009;-49
2022/07/31 08:08:25;;;;;;;1.83;1.40;;;;;;;;;;5019142;28;91376;-49
2022/07/31 08:10:54;;;;;;;2.10;1.67;;;;;;;;;;5017437;28;94250;-48
2022/07/31 08:13:22;;;;;;;2.10;1.63;;;;;;;;;;5017361;28;92940;-49
2022/07/31 08:15:50;;;;;;;1.77;1.30;;;;;;;;;;5025351;28;93115;-51
2022/07/31 08:18:19;;;;;;;1.50;1.40;;;;;;;;;;5036846;28;92424;-54
2022/07/31 08:20:47;;;;;;;4.07;1.80;;;;;;;;;;5033317;28;94170;-54
2022/07/31 08:23:16;;;;;;;5.27;1.70;;;;;;;;;;5037922;28;92525;-54
2022/07/31 08:25:46;;;;;;;3.63;1.70;;;;;;;;;;5038483;28;93395;-53
2022/07/31 08:28:18;;;;;;;4.13;1.60;;;;;;;;;;5039001;28;92080;-54
2022/07/31 08:30:51;;;;;;;2.60;1.83;;;;;;;;;;5036816;28;93182;-54
2022/07/31 08:33:19;;;;;;;2.30;1.50;;;;;;;;;;5028764;28;93891;-53
2022/07/31 08:35:49;;;;;;;1.87;1.60;;;;;;;;;;5028949;28;92076;-53
2022/07/31 08:38:18;;;;;;;4.37;1.33;;;;;;;;;;5014529;28;92523;-53
2022/07/31 08:40:48;;;;;;;1.83;1.43;;;;;;;;;;5043096;27;95364;-54
2022/07/31 08:43:16;;;;;;;5.07;2.07;;;;;;;;;;5037168;28;94801;-54
2022/07/31 08:46:06;;;;;;;4.40;1.77;;;;;;;;;;5034649;28;92055;-53
2022/07/31 08:48:35;;;;;;;3.40;1.77;;;;;;;;;;5027516;28;92526;-53
2022/07/31 08:51:03;;;;;;;1.33;1.23;;;;;;;;;;5034385;27;94154;-53
2022/07/31 08:53:32;;;;;;;7.10;2.60;;;;;;;;;;5031664;28;93033;-53
2022/07/31 08:56:01;;;;;;;2.10;1.60;;;;;;;;;;5028707;28;92147;-55
2022/07/31 08:58:30;;;;;;;3.10;1.93;;;;;;;;;;5042123;27;91357;-54
2022/07/31 09:01:03;;;;;;;2.03;1.83;;;;;;;;;;5031548;28;93120;-54
2022/07/31 09:03:31;;;;;;;3.63;2.10;;;;;;;;;;5036734;28;93862;-54
2022/07/31 09:05:59;;;;;;;3.50;1.90;;;;;;;;;;5032501;28;92903;-54
2022/07/31 09:08:28;;;;;;;2.80;1.87;;;;;;;;;;5026729;28;92102;-54
2022/07/31 09:11:04;;;;;;;3.47;2.00;;;;;;;;;;5016472;28;94218;-54
2022/07/31 09:13:34;;;;;;;3.93;1.90;;;;;;;;;;5027814;27;92802;-54
2022/07/31 09:16:02;;;;;;;1.83;1.70;;;;;;;;;;5028322;28;92094;-54
2022/07/31 09:18:30;;;;;;;3.23;2.70;;;;;;;;;;5036719;28;92050;-54
2022/07/31 09:20:59;;;;;;;3.50;2.27;;;;;;;;;;5036059;28;94218;-55
2022/07/31 09:23:29;;;;;;;3.20;2.33;;;;;;;;;;5038388;28;93989;-55
2022/07/31 09:25:58;;;;;;;2.83;2.57;;;;;;;;;;5037447;28;92062;-55
2022/07/31 09:28:34;;;;;;;3.13;2.70;;;;;;;;;;5028865;28;92169;-54
2022/07/31 09:31:02;;;;;;;2.73;2.50;;;;;;;;;;5036562;28;94081;-54
2022/07/31 09:33:31;;;;;;;3.30;2.63;;;;;;;;;;5037887;28;94828;-54
2022/07/31 09:35:59;;;;;;;3.40;2.53;;;;;;;;;;5028624;28;92173;-55
2022/07/31 09:38:32;;;;;;;2.50;2.17;;;;;;;;;;5037971;28;91899;-55
2022/07/31 09:41:10;;;;;;;5.70;2.30;;;;;;;;;;5029044;28;93275;-55
2022/07/31 09:44:01;;;;;;;3.73;1.60;;;;;;;;;;5030443;28;92599;-54
2022/07/31 09:46:40;;;;;;;1.83;1.73;;;;;;;;;;5036983;28;92199;-54
2022/07/31 09:49:09;;;;;;;5.63;2.20;;;;;;;;;;5035901;27;91367;-55
2022/07/31 09:51:40;;;;;;;2.80;1.70;;;;;;;;;;5038481;27;94083;-55
2022/07/31 09:54:11;;;;;;;2.67;1.73;;;;;;;;;;5038986;28;93764;-54
2022/07/31 09:56:39;;;;;;;2.77;2.47;;;;;;;;;;5040632;28;93250;-54
2022/07/31 09:59:09;;;;;;;5.30;2.10;;;;;;;;;;5041316;28;92052;-54
2022/07/31 10:01:40;;;;;;;8.20;2.10;;;;;;;;;;5037993;27;94244;-53
2022/07/31 10:04:08;;;;;;;3.87;2.10;;;;;;;;;;5032390;28;94132;-54
2022/07/31 10:06:36;;;;;;;6.33;2.80;;;;;;;;;;5039436;28;92191;-54
2022/07/31 10:09:05;;;;;;;4.57;1.93;;;;;;;;;;5033867;28;92386;-54
2022/07/31 10:11:33;;;;;;;5.80;1.67;;;;;;;;;;5034408;28;94307;-55
2022/07/31 10:14:01;;;;;;;1.63;1.53;;;;;;;;;;5040868;27;92826;-54
2022/07/31 10:16:33;;;;;;;3.03;1.60;;;;;;;;;;5041416;27;92057;-55
2022/07/31 10:19:02;;;;;;;4.40;1.60;;;;;;;;;;5040523;28;92022;-54
2022/07/31 10:21:32;;;;;;;1.63;1.53;;;;;;;;;;5040280;28;94194;-53
2022/07/31 10:24:00;;;;;;;4.87;1.83;;;;;;;;;;5041732;27;95120;-54
2022/07/31 10:26:28;;;;;;;3.53;1.90;;;;;;;;;;5040536;28;92396;-54
2022/07/31 10:29:17;;;;;;;4.27;1.90;;;;;;;;;;5038903;28;92082;-54
2022/07/31 10:31:47;;;;;;;1.70;1.47;;;;;;;;;;5039888;27;94353;-54
2022/07/31 10:34:15;;;;;;;1.70;1.57;;;;;;;;;;5038504;28;92914;-54
2022/07/31 10:36:44;;;;;;;3.90;1.80;;;;;;;;;;5040399;28;92178;-54
2022/07/31 10:39:15;;;;;;;2.43;1.90;;;;;;;;;;5041600;28;91373;-54
2022/07/31 10:41:46;;;;;;;3.10;1.90;;;;;;;;;;5035818;28;94338;-53
2022/07/31 10:44:17;;;;;;;3.47;2.10;;;;;;;;;;5031842;28;93877;-54
2022/07/31 10:46:45;;;;;;;2.33;1.60;;;;;;;;;;5040707;28;93008;-54
2022/07/31 10:49:15;;;;;;;3.07;2.27;;;;;;;;;;5041117;28;92122;-54
2022/07/31 10:51:47;;;;;;;2.47;1.87;;;;;;;;;;5040626;28;94128;-54
2022/07/31 10:54:15;;;;;;;2.50;1.53;;;;;;;;;;5039470;28;92980;-55
2022/07/31 10:56:45;;;;;;;3.40;2.03;;;;;;;;;;5023931;28;92038;-54
2022/07/31 10:59:13;;;;;;;1.70;1.60;;;;;;;;;;5039566;28;92135;-53
2022/07/31 11:01:48;;;;;;;6.97;2.13;;;;;;;;;;5035564;28;94091;-54
2022/07/31 11:04:27;;;;;;;2.97;2.07;;;;;;;;;;5039360;28;93049;-54
2022/07/31 11:06:55;;;;;;;2.53;1.80;;;;;;;;;;5039935;28;92265;-54
2022/07/31 11:09:24;;;;;;;2.23;1.90;;;;;;;;;;5039849;28;92145;-54
2022/07/31 11:11:53;;;;;;;3.07;1.83;;;;;;;;;;5033560;28;95072;-54
2022/07/31 11:14:31;;;;;;;3.40;1.77;;;;;;;;;;5025670;28;94773;-54
2022/07/31 11:17:00;;;;;;;2.43;2.10;;;;;;;;;;5021728;28;92142;-54
2022/07/31 11:19:39;;;;;;;4.13;2.20;;;;;;;;;;5040355;28;91949;-54
2022/07/31 11:22:11;;;;;;;1.87;1.70;;;;;;;;;;5039988;28;94066;-54
2022/07/31 11:25:00;;;;;;;1.63;1.53;;;;;;;;;;5039668;28;92889;-54
2022/07/31 11:27:31;;;;;;;1.13;1.03;;;;;;;;;;5040473;28;92130;-54
2022/07/31 11:30:04;;;;;;;3.20;1.40;;;;;;;;;;5040842;28;91388;-54
2022/07/31 11:32:38;;;;;;;2.13;1.30;;;;;;;;;;5040004;28;94143;-54
2022/07/31 11:35:08;;;;;;;3.53;1.50;;;;;;;;;;5040444;28;93797;-54
2022/07/31 11:37:37;;;;;;;3.03;1.03;;;;;;;;;;5039757;28;93004;-54
2022/07/31 11:40:24;;;;;;;1.20;1.10;;;;;;;;;;5032522;28;92035;-54
2022/07/31 11:42:56;;;;;;;1.60;1.27;;;;;;;;;;5039693;28;94360;-54
2022/07/31 11:45:48;;;;;;;1.13;1.03;;;;;;;;;;5030976;28;92099;-54
2022/07/31 11:48:16;;;;;;;4.27;1.50;;;;;;;;;;5034358;28;92004;-54
2022/07/31 11:50:48;;;;;;;1.83;1.20;;;;;;;;;;5036320;28;92216;-54
2022/07/31 11:53:16;;;;;;;1.70;1.27;;;;;;;;;;5034948;28;94284;-54
2022/07/31 11:55:45;;;;;;;1.97;1.10;;;;;;;;;;5028683;28;93060;-54
2022/07/31 11:58:14;;;;;;;1.63;1.10;;;;;;;;;;5033606;28;92085;-55
2022/07/31 12:00:46;;;;;;;2.60;1.50;;;;;;;;;;5039622;28;91961;-55
2022/07/31 12:03:15;;;;;;;1.40;1.30;;;;;;;;;;5035959;28;95065;-54
2022/07/31 12:05:48;;;;;;;1.03;0.93;;;;;;;;;;5044824;27;94701;-53
2022/07/31 12:08:16;;;;;;;1.90;1.20;;;;;;;;;;5052887;27;92119;-53
2022/07/31 12:10:44;;;;;;;2.77;1.53;;;;;;;;;;5059246;27;92122;-53
2022/07/31 12:13:13;;;;;;;2.43;1.27;;;;;;;;;;5060148;27;93513;-53
2022/07/31 12:15:53;;;;;;;1.30;0.83;;;;;;;;;;5054266;27;92313;-55
2022/07/31 12:18:22;;;;;;;1.17;1.03;;;;;;;;;;5038710;27;91937;-53
2022/07/31 12:20:55;;;;;;;3.37;1.20;;;;;;;;;;5040022;27;91961;-53
2022/07/31 12:23:23;;;;;;;1.77;1.03;;;;;;;;;;5041942;27;94285;-56
2022/07/31 12:26:08;;;;;;;2.30;1.13;;;;;;;;;;5037690;28;92587;-53
2022/07/31 12:28:37;;;;;;;1.00;0.80;;;;;;;;;;5038905;27;93395;-53
2022/07/31 12:31:05;;;;;;;1.73;1.40;;;;;;;;;;5040985;27;92967;-53
2022/07/31 12:33:40;;;;;;;2.17;1.13;;;;;;;;;;5043102;27;93352;-53
2022/07/31 12:36:13;;;;;;;2.10;1.27;;;;;;;;;;5038698;28;92061;-53
2022/07/31 12:38:41;;;;;;;2.50;1.40;;;;;;;;;;5035315;28;92077;-54
2022/07/31 12:41:15;;;;;;;2.20;1.40;;;;;;;;;;5025926;28;92399;-53
2022/07/31 12:43:43;;;;;;;1.40;1.00;;;;;;;;;;5026498;28;94069;-54
2022/07/31 12:46:23;;;;;;;2.30;1.30;;;;;;;;;;5034681;28;94089;-56
2022/07/31 12:48:51;;;;;;;2.87;2.00;;;;;;;;;;5035493;28;92653;-56
2022/07/31 12:51:21;;;;;;;3.03;1.60;;;;;;;;;;5035441;28;92188;-53
2022/07/31 12:54:10;;;;;;;15.90;4.20;;;;;;;;;;5034808;27;95849;-53
2022/07/31 12:56:38;;;;;;;6.40;2.53;;;;;;;;;;5037522;27;94848;-53
2022/07/31 12:59:07;;;;;;;6.93;2.67;;;;;;;;;;5039368;28;92091;-53
2022/07/31 13:01:35;;;;;;;13.43;4.10;;;;;;;;;;5038977;28;92130;-53
2022/07/31 13:04:04;;;;;;;18.63;5.07;;;;;;;;;;5041439;27;94115;-53
2022/07/31 13:06:37;;;;;;;8.10;3.53;;;;;;;;;;5041054;27;92509;-56
2022/07/31 13:09:05;;;;;;;6.93;2.40;;;;;;;;;;5031705;28;92148;-53
2022/07/31 13:11:34;;;;;;;4.17;2.33;;;;;;;;;;5034823;28;91431;-53
2022/07/31 13:14:15;;;;;;;3.20;1.60;;;;;;;;;;5038832;28;93595;-52
2022/07/31 13:16:44;;;;;;;3.93;2.07;;;;;;;;;;5038585;28;95283;-52
2022/07/31 13:19:12;;;;;;;2.27;1.57;;;;;;;;;;5036815;27;93106;-52
2022/07/31 13:21:42;;;;;;;6.00;2.27;;;;;;;;;;5026594;28;92063;-53
2022/07/31 13:24:16;;;;;;;2.50;1.87;;;;;;;;;;5022414;27;92243;-52
2022/07/31 13:26:45;;;;;;;3.60;2.03;;;;;;;;;;5020895;28;93894;-53
2022/07/31 13:29:13;;;;;;;4.47;1.83;;;;;;;;;;5033017;28;92339;-52
2022/07/31 13:31:42;;;;;;;2.67;1.53;;;;;;;;;;5033222;28;92009;-53
2022/07/31 13:34:10;;;;;;;2.40;1.57;;;;;;;;;;5041207;28;94322;-52
2022/07/31 13:36:38;;;;;;;2.43;1.70;;;;;;;;;;5041386;28;93953;-52
2022/07/31 13:39:08;;;;;;;4.67;1.50;;;;;;;;;;5040730;28;92183;-52
2022/07/31 13:41:37;;;;;;;2.83;1.73;;;;;;;;;;5040978;28;92111;-51
2022/07/31 13:44:07;;;;;;;4.87;1.67;;;;;;;;;;5034705;28;94903;-52
2022/07/31 13:46:35;;;;;;;2.27;1.67;;;;;;;;;;5040718;28;94959;-51
2022/07/31 13:49:06;;;;;;;3.73;1.80;;;;;;;;;;5025892;28;92090;-52
2022/07/31 13:51:35;;;;;;;3.67;1.77;;;;;;;;;;5040945;28;92107;-52
2022/07/31 13:54:04;;;;;;;2.77;1.87;;;;;;;;;;5041428;28;93310;-52
2022/07/31 13:56:34;;;;;;;5.00;2.13;;;;;;;;;;5041558;28;94020;-52
2022/07/31 13:59:10;;;;;;;2.87;1.40;;;;;;;;;;5041601;28;92447;-53
2022/07/31 14:01:39;;;;;;;3.57;1.90;;;;;;;;;;5041600;28;92195;-53
2022/07/31 14:04:27;;;;;;;5.53;2.17;;;;;;;;;;5040795;28;92905;-52
2022/07/31 14:07:00;;;;;;;3.23;1.97;;;;;;;;;;5040837;28;93792;-52
2022/07/31 14:09:32;;;;;;;4.00;1.70;;;;;;;;;;5041015;28;93101;-52
2022/07/31 14:12:02;;;;;;;4.57;2.27;;;;;;;;;;5041923;28;92108;-52
2022/07/31 14:14:33;;;;;;;2.80;1.90;;;;;;;;;;5041069;28;94095;-52
2022/07/31 14:17:01;;;;;;;3.10;2.13;;;;;;;;;;5040977;28;93873;-52
2022/07/31 14:19:29;;;;;;;2.80;2.33;;;;;;;;;;5041235;28;92130;-52
2022/07/31 14:22:11;;;;;;;4.17;2.23;;;;;;;;;;5040874;28;94313;-51
2022/07/31 14:24:40;;;;;;;4.93;2.43;;;;;;;;;;5041090;28;92128;-52
2022/07/31 14:27:11;;;;;;;3.30;2.20;;;;;;;;;;5041793;28;92696;-52
2022/07/31 14:29:39;;;;;;;4.00;2.30;;;;;;;;;;5041486;28;92071;-52
2022/07/31 14:32:08;;;;;;;4.87;2.20;;;;;;;;;;5040986;28;92051;-52
2022/07/31 14:34:36;;;;;;;4.07;2.50;;;;;;;;;;5040840;28;92933;-52
2022/07/31 14:37:05;;;;;;;4.67;2.03;;;;;;;;;;5041039;28;94877;-52
2022/07/31 14:39:33;;;;;;;2.87;2.40;;;;;;;;;;5040183;28;92088;-52
2022/07/31 14:42:02;;;;;;;6.83;2.30;;;;;;;;;;5041213;28;92069;-52
2022/07/31 14:44:32;;;;;;;4.93;2.37;;;;;;;;;;5040761;28;93122;-51
2022/07/31 14:47:00;;;;;;;2.97;2.23;;;;;;;;;;5041199;28;94059;-54
2022/07/31 14:49:29;;;;;;;2.27;2.03;;;;;;;;;;5035940;28;92951;-52
2022/07/31 14:52:17;;;;;;;3.30;2.10;;;;;;;;;;5038026;28;91813;-51
2022/07/31 14:54:46;;;;;;;2.97;2.10;;;;;;;;;;5023564;28;94452;-52
2022/07/31 14:57:14;;;;;;;3.17;2.43;;;;;;;;;;5034241;28;93826;-52
2022/07/31 14:59:51;;;;;;;4.30;2.40;;;;;;;;;;5036589;27;92963;-53
2022/07/31 15:02:19;;;;;;;4.13;2.10;;;;;;;;;;5030401;28;92126;-50